createdAt,value
2022-09-05T00:01:00.779Z,10.40
2022-09-05T00:04:24.037Z,10.30
2022-09-05T00:07:59.115Z,10.30
2022-09-05T00:11:42.027Z,10.20
2022-09-05T00:15:17.537Z,10.20
2022-09-05T00:22:09.532Z,10.10
2022-09-05T00:24:36.508Z,10.00
2022-09-05T00:26:14.192Z,9.90
2022-09-05T00:29:42.038Z,9.90
2022-09-05T00:33:21.908Z,9.90
2022-09-05T00:36:34.276Z,9.80
2022-09-05T00:39:39.587Z,9.70
2022-09-05T00:42:46.601Z,9.70
2022-09-05T00:45:55.611Z,9.60
2022-09-05T00:49:11.969Z,9.50
2022-09-05T00:52:19.740Z,9.40
2022-09-05T00:55:31.760Z,9.40
2022-09-05T00:59:01.217Z,9.30
2022-09-05T01:02:12.637Z,9.30
2022-09-05T01:05:29.579Z,9.30
2022-09-05T01:09:02.629Z,9.30
2022-09-05T01:12:26.668Z,9.20
2022-09-05T01:15:37.924Z,9.20
2022-09-05T01:18:51.150Z,9.10
2022-09-05T01:22:31.968Z,9.00
2022-09-05T01:25:54.986Z,9.00
2022-09-05T01:29:18.402Z,8.90
2022-09-05T01:32:31.390Z,8.80
2022-09-05T01:36:11.385Z,8.80
2022-09-05T01:40:14.171Z,8.80
2022-09-05T01:42:57.132Z,8.80
2022-09-05T01:46:19.540Z,8.70
2022-09-05T01:49:34.143Z,8.70
2022-09-05T01:53:01.519Z,8.70
2022-09-05T01:56:35.288Z,8.70
2022-09-05T01:59:47.094Z,8.60
2022-09-05T02:03:04.578Z,8.50
2022-09-05T02:06:29.454Z,8.50
2022-09-05T02:09:58.235Z,8.40
2022-09-05T02:13:23.137Z,8.40
2022-09-05T02:16:35.630Z,8.40
2022-09-05T02:19:47.602Z,8.40
2022-09-05T02:22:58.916Z,8.30
2022-09-05T02:26:06.949Z,8.30
2022-09-05T02:29:28.914Z,8.20
2022-09-05T02:32:43.250Z,8.20
2022-09-05T02:35:56.038Z,8.20
2022-09-05T02:40:06.193Z,8.10
2022-09-05T02:45:12.933Z,8.00
2022-09-05T02:46:06.315Z,8.00
2022-09-05T02:49:41.827Z,8.00
2022-09-05T02:57:25.901Z,8.00
2022-09-05T02:57:35.917Z,8.00
2022-09-05T03:00:02.387Z,7.90
2022-09-05T03:03:19.990Z,7.90
2022-09-05T03:06:35.378Z,7.90
2022-09-05T03:09:55.370Z,7.80
2022-09-05T03:13:32.209Z,7.80
2022-09-05T03:17:15.210Z,7.80
2022-09-05T03:21:09.566Z,7.70
2022-09-05T03:24:55.682Z,7.70
2022-09-05T03:28:37.120Z,7.70
2022-09-05T03:32:15.074Z,7.60
2022-09-05T03:35:51.694Z,7.60
2022-09-05T03:39:21.471Z,7.50
2022-09-05T03:42:52.997Z,7.50
2022-09-05T03:46:13.235Z,7.40
2022-09-05T03:51:58.912Z,7.40
2022-09-05T03:57:15.963Z,7.40
2022-09-05T03:57:48.833Z,7.40
2022-09-05T04:01:10.998Z,7.40
2022-09-05T04:08:15.465Z,7.40
2022-09-05T04:08:34.208Z,7.40
2022-09-05T04:11:44.439Z,7.40
2022-09-05T04:14:52.559Z,7.40
2022-09-05T04:18:03.667Z,7.50
2022-09-05T04:21:14.392Z,7.50
2022-09-05T04:24:30.118Z,7.50
2022-09-05T04:27:43.658Z,7.50
2022-09-05T04:30:53.601Z,7.60
2022-09-05T04:34:07.368Z,7.60
2022-09-05T04:37:29.730Z,7.70
2022-09-05T04:40:52.053Z,7.80
2022-09-05T04:44:00.656Z,7.90
2022-09-05T04:47:15.745Z,7.90
2022-09-05T04:50:24.153Z,8.00
2022-09-05T04:53:40.705Z,8.10
2022-09-05T04:56:50.523Z,8.20
2022-09-05T05:05:58.697Z,8.30
2022-09-05T05:06:17.746Z,8.40
2022-09-05T05:07:07.872Z,8.50
2022-09-05T05:11:30.331Z,8.70
2022-09-05T05:18:02.408Z,8.80
2022-09-05T05:18:10.904Z,8.90
2022-09-05T05:20:50.328Z,9.00
2022-09-05T05:23:57.252Z,9.20
2022-09-05T05:27:10.364Z,9.30
2022-09-05T05:30:26.360Z,9.50
2022-09-05T05:33:33.008Z,9.60
2022-09-05T05:36:41.230Z,9.70
2022-09-05T05:39:48.328Z,9.90
2022-09-05T05:42:51.952Z,10.00
2022-09-05T05:46:01.613Z,10.10
2022-09-05T05:49:32.386Z,10.30
2022-09-05T05:53:28.859Z,10.40
2022-09-05T05:56:53.774Z,10.60
2022-09-05T06:00:07.664Z,10.80
2022-09-05T06:03:53.312Z,11.20
2022-09-05T06:07:10.013Z,11.10
2022-09-05T06:14:55.253Z,11.20
2022-09-05T06:15:09.213Z,11.40
2022-09-05T06:18:51.727Z,11.60
2022-09-05T06:22:29.051Z,11.80
2022-09-05T06:26:20.297Z,12.00
2022-09-05T06:30:21.701Z,12.20
2022-09-05T06:34:05.948Z,12.40
2022-09-05T06:37:51.160Z,12.70
2022-09-05T06:41:13.604Z,12.70
2022-09-05T06:44:46.207Z,12.90
2022-09-05T06:48:45.784Z,13.10
2022-09-05T06:52:34.252Z,13.20
2022-09-05T06:56:26.314Z,13.40
2022-09-05T07:08:37.280Z,15.50
2022-09-05T07:11:51.550Z,14.10
2022-09-05T07:15:08.926Z,14.20
2022-09-05T07:18:23.461Z,14.40
2022-09-05T07:21:31.756Z,14.40
2022-09-05T07:24:54.051Z,14.60
2022-09-05T07:28:29.104Z,14.70
2022-09-05T07:31:37.936Z,14.90
2022-09-05T07:34:41.815Z,15.00
2022-09-05T07:37:49.004Z,15.20
2022-09-05T07:40:58.390Z,15.20
2022-09-05T07:44:07.165Z,15.20
2022-09-05T07:47:18.029Z,15.40
2022-09-05T07:54:36.695Z,15.50
2022-09-05T07:56:55.404Z,15.70
2022-09-05T07:57:30.710Z,15.80
2022-09-05T08:00:37.214Z,15.80
2022-09-05T08:03:44.819Z,15.90
2022-09-05T08:07:45.881Z,15.90
2022-09-05T08:10:18.372Z,15.90
2022-09-05T08:13:30.400Z,16.00
2022-09-05T08:16:34.956Z,16.10
2022-09-05T08:19:55.372Z,16.20
2022-09-05T08:23:12.417Z,16.30
2022-09-05T08:26:19.336Z,16.30
2022-09-05T08:29:32.050Z,16.50
2022-09-05T08:32:44.312Z,16.60
2022-09-05T08:36:00.977Z,16.80
2022-09-05T08:39:07.655Z,16.80
2022-09-05T08:42:25.105Z,17.00
2022-09-05T08:46:43.693Z,17.00
2022-09-05T08:50:08.088Z,17.20
2022-09-05T08:53:45.178Z,17.30
2022-09-05T08:56:39.167Z,17.40
2022-09-05T09:00:18.638Z,17.60
2022-09-05T09:03:22.502Z,17.60
2022-09-05T09:07:48.223Z,17.60
2022-09-05T09:10:40.480Z,17.70
2022-09-05T09:13:54.599Z,17.90
2022-09-05T09:17:05.027Z,17.90
2022-09-05T09:20:30.881Z,18.10
2022-09-05T09:23:44.990Z,18.20
2022-09-05T09:26:56.192Z,18.40
2022-09-05T09:30:04.925Z,18.60
2022-09-05T09:33:11.402Z,18.70
2022-09-05T09:36:57.833Z,18.60
2022-09-05T09:40:26.238Z,18.80
2022-09-05T09:43:44.257Z,19.00
2022-09-05T09:46:57.722Z,19.00
2022-09-05T09:50:22.604Z,18.90
2022-09-05T09:53:43.448Z,18.90
2022-09-05T09:57:19.586Z,19.20
2022-09-05T10:00:24.169Z,19.20
2022-09-05T10:09:20.485Z,19.40
2022-09-05T10:10:47.955Z,19.40
2022-09-05T10:15:31.586Z,19.60
2022-09-05T10:19:00.515Z,20.00
2022-09-05T10:22:41.365Z,19.90
2022-09-05T10:26:21.113Z,20.10
2022-09-05T10:29:47.468Z,19.80
2022-09-05T10:35:12.866Z,19.70
2022-09-05T10:36:45.076Z,19.90
2022-09-05T10:39:52.141Z,20.40
2022-09-05T10:43:01.571Z,20.50
2022-09-05T10:46:46.579Z,20.50
2022-09-05T10:49:45.638Z,20.50
2022-09-05T10:53:03.557Z,20.50
2022-09-05T10:56:13.245Z,20.70
2022-09-05T11:02:20.101Z,20.60
2022-09-05T11:02:56.002Z,21.10
2022-09-05T11:06:09.463Z,21.00
2022-09-05T11:09:20.753Z,21.20
2022-09-05T11:12:34.376Z,21.60
2022-09-05T11:16:04.966Z,22.10
2022-09-05T11:19:20.004Z,22.80
2022-09-05T11:22:28.052Z,22.00
2022-09-05T11:25:39.828Z,21.80
2022-09-05T11:29:00.575Z,23.10
2022-09-05T11:35:37.206Z,23.60
2022-09-05T11:40:00.590Z,25.10
2022-09-05T11:43:48.076Z,24.10
2022-09-05T11:47:30.285Z,24.40
2022-09-05T11:50:58.405Z,25.90
2022-09-05T11:54:43.502Z,26.70
2022-09-05T11:57:57.082Z,26.90
2022-09-05T12:01:43.012Z,26.40
2022-09-05T12:05:47.556Z,26.30
2022-09-05T12:08:28.658Z,27.40
2022-09-05T12:11:46.287Z,25.10
2022-09-05T12:15:12.290Z,26.80
2022-09-05T12:18:29.789Z,27.40
2022-09-05T12:27:36.043Z,27.40
2022-09-05T12:29:26.217Z,27.90
2022-09-05T12:35:44.108Z,28.00
2022-09-05T12:40:28.658Z,27.30
2022-09-05T12:41:34.234Z,28.10
2022-09-05T12:42:08.241Z,27.80
2022-09-05T12:44:38.262Z,27.40
2022-09-05T12:46:35.710Z,27.30
2022-09-05T12:49:51.799Z,27.10
2022-09-05T12:53:03.107Z,28.30
2022-09-05T12:57:34.639Z,28.00
2022-09-05T13:03:01.867Z,27.80
2022-09-05T13:03:28.252Z,28.50
2022-09-05T13:06:39.594Z,25.00
2022-09-05T13:11:18.582Z,24.00
2022-09-05T13:15:08.082Z,24.90
2022-09-05T13:17:14.158Z,26.50
2022-09-05T13:20:22.360Z,27.20
2022-09-05T13:23:28.463Z,26.60
2022-09-05T13:26:40.093Z,25.50
2022-09-05T13:30:03.735Z,24.70
2022-09-05T13:38:05.626Z,24.10
2022-09-05T13:38:12.700Z,23.70
2022-09-05T13:40:19.626Z,22.80
2022-09-05T13:43:26.749Z,21.90
2022-09-05T13:46:41.394Z,21.00
2022-09-05T13:49:56.503Z,21.60
2022-09-05T13:53:15.203Z,22.00
2022-09-05T13:56:25.530Z,21.80
2022-09-05T13:59:29.679Z,22.00
2022-09-05T14:10:09.509Z,22.60
2022-09-05T14:13:24.686Z,22.60
2022-09-05T14:16:41.973Z,22.90
2022-09-05T14:20:17.072Z,23.50
2022-09-05T14:23:25.193Z,23.30
2022-09-05T14:26:35.872Z,24.70
2022-09-05T14:29:42.200Z,25.40
2022-09-05T14:37:49.770Z,25.40
2022-09-05T14:37:55.134Z,25.30
2022-09-05T14:40:32.730Z,26.60
2022-09-05T14:44:08.518Z,26.60
2022-09-05T14:55:22.364Z,26.90
2022-09-05T15:02:41.911Z,27.00
2022-09-05T15:06:32.838Z,25.80
2022-09-05T15:17:02.031Z,25.50
2022-09-05T15:20:37.514Z,24.30
2022-09-05T15:23:46.163Z,25.30
2022-09-05T15:27:10.691Z,25.30
2022-09-05T15:34:33.347Z,26.30
2022-09-05T15:37:50.184Z,25.90
2022-09-05T15:41:21.168Z,27.20
2022-09-05T15:44:27.266Z,28.10
2022-09-05T15:47:31.917Z,27.70
2022-09-05T15:50:42.826Z,27.60
2022-09-05T15:53:53.083Z,27.80
2022-09-05T15:57:00.933Z,27.30
2022-09-05T16:00:07.995Z,26.00
2022-09-05T16:05:32.044Z,24.20
2022-09-05T16:10:47.281Z,21.80
2022-09-05T16:10:50.492Z,23.00
2022-09-05T16:13:53.151Z,20.80
2022-09-05T16:23:20.496Z,20.00
2022-09-05T16:23:27.784Z,19.30
2022-09-05T16:24:04.854Z,18.40
2022-09-05T16:27:13.611Z,17.90
2022-09-05T16:30:23.333Z,17.40
2022-09-05T16:33:29.292Z,17.00
2022-09-05T16:36:39.693Z,16.70
2022-09-05T16:39:50.995Z,16.50
2022-09-05T16:43:03.879Z,16.20
2022-09-05T16:46:15.541Z,16.00
2022-09-05T16:49:41.635Z,15.60
2022-09-05T16:53:03.179Z,15.50
2022-09-05T16:56:31.202Z,15.30
2022-09-05T16:59:39.228Z,15.10
2022-09-05T17:02:45.097Z,14.80
2022-09-05T17:05:53.564Z,14.50
2022-09-05T17:09:13.520Z,14.30
2022-09-05T17:12:22.162Z,14.00
2022-09-05T17:15:32.389Z,13.80
2022-09-05T17:18:38.559Z,13.60
2022-09-05T17:26:46.912Z,13.50
2022-09-05T17:29:29.818Z,13.30
2022-09-05T17:29:38.349Z,13.10
2022-09-05T17:32:20.778Z,13.00
2022-09-05T17:35:49.446Z,12.70
2022-09-05T17:39:15.933Z,12.50
2022-09-05T17:42:32.765Z,12.40
2022-09-05T17:45:45.202Z,12.30
2022-09-05T17:49:19.564Z,12.20
2022-09-05T17:52:24.562Z,12.00
2022-09-05T17:56:04.692Z,11.90
2022-09-05T17:59:24.968Z,11.70
2022-09-05T18:02:35.491Z,11.60
2022-09-05T18:06:03.991Z,11.50
2022-09-05T18:09:10.428Z,11.40
2022-09-05T18:13:12.658Z,11.30
2022-09-05T18:16:12.887Z,11.20
2022-09-05T18:19:57.553Z,11.00
2022-09-05T18:23:39.117Z,10.90
2022-09-05T18:26:53.288Z,10.90
2022-09-05T18:30:05.954Z,10.80
2022-09-05T18:33:54.146Z,10.70
2022-09-05T18:36:43.070Z,10.60
2022-09-05T18:39:48.837Z,10.60
2022-09-05T18:46:58.628Z,10.40
2022-09-05T18:51:13.812Z,10.20
2022-09-05T18:59:27.225Z,9.80
2022-09-05T19:06:45.453Z,9.80
2022-09-05T19:10:35.211Z,9.80
2022-09-05T19:13:34.094Z,9.70
2022-09-05T19:16:43.134Z,9.70
2022-09-05T19:20:32.534Z,9.60
2022-09-05T19:23:45.030Z,9.40
2022-09-05T19:26:59.834Z,9.40
2022-09-05T19:36:52.111Z,9.30
2022-09-05T19:37:10.870Z,9.30
2022-09-05T19:37:38.754Z,9.20
2022-09-05T19:47:27.504Z,9.00
2022-09-05T19:47:40.054Z,9.00
2022-09-05T19:48:04.370Z,8.90
2022-09-05T19:51:17.369Z,8.80
2022-09-05T19:54:28.822Z,8.70
2022-09-05T19:57:33.367Z,8.70
2022-09-05T20:00:41.389Z,8.60
2022-09-05T20:03:46.645Z,8.60
2022-09-05T20:06:51.552Z,8.50
2022-09-05T20:09:57.726Z,8.40
2022-09-05T20:13:01.799Z,8.40
2022-09-05T20:16:09.305Z,8.30
2022-09-05T20:19:28.343Z,8.30
2022-09-05T20:22:49.450Z,8.30
2022-09-05T20:25:56.292Z,8.20
2022-09-05T20:29:02.688Z,8.20
2022-09-05T20:32:08.325Z,8.20
2022-09-05T20:41:13.987Z,8.10
2022-09-05T20:43:19.944Z,7.80
2022-09-05T20:43:21.594Z,8.20
2022-09-05T20:45:48.428Z,8.20
2022-09-05T20:54:07.567Z,8.20
2022-09-05T20:54:20.536Z,8.20
2022-09-05T20:56:18.192Z,8.10
2022-09-05T20:59:26.158Z,8.10
2022-09-05T21:02:35.775Z,8.10
2022-09-05T21:05:41.224Z,8.00
2022-09-05T21:08:45.741Z,8.00
2022-09-05T21:11:50.901Z,7.90
2022-09-05T21:15:21.288Z,7.90
2022-09-05T21:18:33.755Z,8.00
2022-09-05T21:21:39.252Z,8.00
2022-09-05T21:24:44.548Z,8.00
2022-09-05T21:27:59.894Z,8.00
2022-09-05T21:31:05.872Z,8.00
2022-09-05T21:34:20.350Z,8.00
2022-09-05T21:37:25.334Z,7.90
2022-09-05T21:40:29.241Z,8.00
2022-09-05T21:47:37.714Z,8.10
2022-09-05T21:47:44.402Z,8.00
2022-09-05T21:50:31.396Z,8.00
2022-09-05T21:54:35.209Z,7.90
2022-09-05T21:59:18.933Z,7.90
2022-09-05T22:00:34.269Z,7.60
2022-09-05T22:03:39.105Z,7.80
2022-09-05T22:06:48.567Z,7.80
2022-09-05T22:09:53.672Z,7.80
2022-09-05T22:12:57.533Z,7.80
2022-09-05T22:16:04.912Z,7.80
2022-09-05T22:19:08.762Z,7.80
2022-09-05T22:22:17.139Z,7.70
2022-09-05T22:25:28.198Z,7.70
2022-09-05T22:28:34.847Z,7.60
2022-09-05T22:31:38.683Z,7.60
2022-09-05T22:34:42.389Z,7.60
2022-09-05T22:37:49.199Z,7.60
2022-09-05T22:41:05.862Z,7.60
2022-09-05T22:44:09.573Z,7.50
2022-09-05T22:47:13.450Z,7.50
2022-09-05T22:50:17.009Z,7.40
2022-09-05T22:53:20.302Z,7.40
2022-09-05T22:56:33.374Z,7.30
2022-09-05T22:59:36.995Z,7.30
2022-09-05T23:02:40.343Z,7.30
2022-09-05T23:05:44.008Z,7.20
2022-09-05T23:08:47.333Z,7.10
2022-09-05T23:11:52.061Z,7.10
2022-09-05T23:14:55.377Z,7.10
2022-09-05T23:18:00.683Z,7.00
2022-09-05T23:21:04.862Z,7.00
2022-09-05T23:24:08.317Z,7.00
2022-09-05T23:27:13.090Z,7.00
2022-09-05T23:30:16.787Z,7.00
2022-09-05T23:33:20.278Z,7.00
2022-09-05T23:36:23.573Z,6.90
2022-09-05T23:39:27.316Z,6.90
2022-09-05T23:42:32.075Z,6.90
2022-09-05T23:45:35.507Z,6.90
2022-09-05T23:48:38.824Z,6.90
2022-09-05T23:51:42.186Z,6.90
2022-09-05T23:54:45.585Z,6.90
2022-09-05T23:57:50.303Z,6.90
